Time;durP1;ratioP1;P1;durP2;ratioP2;P2;SDS_P1;SDS_P2;PMS_P1;PMS_P2;Temp;Humidity;BMP_temperature;BMP_pressure;BME280_temperature;BME280_humidity;BME280_pressure;Samples;Min_cycle;Max_cycle;Signal;HPM_P1;HPM_P2
2022/07/18 00:02:02;;;;;;;3.75;1.38;;;;;;;24.21;28.73;100529.91;5029171;28;20195;-28
2022/07/18 00:04:28;;;;;;;3.47;1.70;;;;;;;24.08;28.40;100529.84;5029830;28;20037;-27
2022/07/18 00:06:54;;;;;;;5.68;1.60;;;;;;;23.97;28.76;100535.47;5029837;28;20052;-27
2022/07/18 00:09:22;;;;;;;2.35;1.52;;;;;;;24.10;28.00;100549.44;5028131;28;20049;-31
2022/07/18 00:11:48;;;;;;;2.92;1.30;;;;;;;24.25;27.07;100557.34;5029295;28;20025;-29
2022/07/18 00:14:13;;;;;;;2.83;1.40;;;;;;;24.18;27.48;100556.94;5029450;28;20091;-30
2022/07/18 00:16:39;;;;;;;3.17;1.40;;;;;;;24.29;27.70;100558.38;5029486;28;20135;-26
2022/07/18 00:19:05;;;;;;;3.90;1.40;;;;;;;24.23;28.85;100559.56;5028369;28;20842;-26
2022/07/18 00:21:32;;;;;;;5.27;1.70;;;;;;;24.44;28.24;100560.03;5028286;28;20069;-27
2022/07/18 00:23:57;;;;;;;3.88;1.52;;;;;;;24.21;29.58;100548.16;5027839;28;20196;-28
2022/07/18 00:26:23;;;;;;;3.83;1.60;;;;;;;24.36;29.83;100547.09;5029330;28;20712;-29
2022/07/18 00:28:48;;;;;;;2.40;1.60;;;;;;;24.45;29.51;100548.81;5027790;28;20527;-27
2022/07/18 00:31:14;;;;;;;4.85;1.60;;;;;;;24.21;30.64;100534.53;5029298;28;20029;-27
2022/07/18 00:33:39;;;;;;;2.83;1.50;;;;;;;24.31;30.66;100553.41;5029506;28;20076;-27
2022/07/18 00:36:05;;;;;;;4.03;1.70;;;;;;;24.26;34.05;100548.06;5029144;28;20056;-27
2022/07/18 00:38:30;;;;;;;2.50;1.52;;;;;;;24.20;29.88;100532.91;5029044;28;20425;-31
2022/07/18 00:40:56;;;;;;;4.60;1.80;;;;;;;24.25;32.11;100535.53;5029312;28;21084;-30
2022/07/18 00:43:21;;;;;;;4.88;1.80;;;;;;;24.29;31.71;100549.38;5029262;28;20033;-30
2022/07/18 00:45:48;;;;;;;3.15;1.90;;;;;;;24.09;32.75;100520.56;5027182;28;20032;-28
2022/07/18 00:48:14;;;;;;;4.78;2.40;;;;;;;24.13;32.87;100557.00;5027786;28;20037;-28
2022/07/18 00:50:41;;;;;;;6.40;2.10;;;;;;;23.85;33.53;100543.28;5028793;28;20025;-28
2022/07/18 00:53:07;;;;;;;4.10;1.95;;;;;;;23.55;37.22;100539.88;5029046;28;20037;-28
2022/07/18 00:55:33;;;;;;;3.13;1.67;;;;;;;23.50;39.27;100547.31;5028727;28;20045;-28
2022/07/18 00:57:59;;;;;;;3.33;1.83;;;;;;;23.18;40.51;100546.91;5026992;28;20083;-27
2022/07/18 01:03:09;;;;;;;3.65;1.92;;;;;;;22.93;38.45;100550.72;5028620;28;20115;-28
2022/07/18 01:05:35;;;;;;;5.60;1.80;;;;;;;23.04;38.03;100568.56;5028486;28;20072;-29
2022/07/18 01:08:01;;;;;;;5.22;1.77;;;;;;;23.14;39.32;100570.34;5028561;28;20806;-28
2022/07/18 01:10:26;;;;;;;4.10;1.80;;;;;;;23.17;37.58;100550.75;5011022;28;20183;-29
2022/07/18 01:12:52;;;;;;;3.47;1.70;;;;;;;23.12;37.47;100569.03;5028452;28;20108;-29
2022/07/18 01:15:18;;;;;;;4.32;1.75;;;;;;;23.03;36.57;100563.44;5028707;28;20060;-29
2022/07/18 01:17:44;;;;;;;3.60;1.90;;;;;;;23.08;34.47;100552.47;5028575;28;20029;-29
2022/07/18 01:20:10;;;;;;;3.92;1.90;;;;;;;23.39;34.49;100573.84;5027560;28;20084;-27
2022/07/18 01:22:35;;;;;;;3.53;1.80;;;;;;;23.39;33.12;100573.84;5027102;28;20128;-27
2022/07/18 01:25:01;;;;;;;3.05;1.83;;;;;;;23.30;34.47;100572.91;5026820;28;20124;-33
2022/07/18 01:27:26;;;;;;;3.25;1.92;;;;;;;23.18;35.99;100568.66;5028039;28;20087;-32
2022/07/18 01:29:53;;;;;;;4.85;1.98;;;;;;;22.95;36.71;100547.72;5028167;28;20037;-32
2022/07/18 01:32:19;;;;;;;4.80;2.03;;;;;;;23.17;36.55;100564.34;5026980;28;20060;-27
2022/07/18 01:34:47;;;;;;;13.60;2.65;;;;;;;22.97;38.01;100559.94;5028231;28;20029;-30
2022/07/18 01:37:13;;;;;;;5.22;1.95;;;;;;;22.83;38.52;100562.53;5028113;28;20040;-29
2022/07/18 01:39:39;;;;;;;2.58;1.70;;;;;;;22.68;38.28;100568.13;5027888;28;20107;-27
2022/07/18 01:42:09;;;;;;;3.13;2.10;;;;;;;22.53;38.10;100566.34;5027443;28;20113;-28
2022/07/18 01:44:36;;;;;;;3.25;1.85;;;;;;;22.49;39.77;100572.66;5026647;28;20104;-32
2022/07/18 01:47:06;;;;;;;4.22;2.20;;;;;;;22.35;41.27;100561.63;5026597;28;20030;-29
2022/07/18 01:49:31;;;;;;;4.88;1.85;;;;;;;22.01;42.35;100541.53;5027904;28;20095;-28
2022/07/18 01:51:58;;;;;;;2.35;1.63;;;;;;;21.58;43.51;100570.31;5027546;28;20072;-36
2022/07/18 01:54:29;;;;;;;6.18;1.95;;;;;;;21.79;42.76;100571.00;5026134;28;20033;-28
2022/07/18 01:56:56;;;;;;;3.78;1.90;;;;;;;21.80;41.83;100578.88;5026397;28;20049;-27
2022/07/18 01:59:22;;;;;;;5.55;2.10;;;;;;;21.86;42.31;100561.47;5027590;28;20556;-27
2022/07/18 02:01:48;;;;;;;5.80;2.40;;;;;;;21.66;42.76;100553.44;5025924;28;20544;-27
2022/07/18 02:04:14;;;;;;;4.88;2.13;;;;;;;21.71;42.91;100574.31;5027350;28;20513;-27
2022/07/18 02:06:39;;;;;;;4.75;2.20;;;;;;;21.98;42.75;100585.53;5027102;28;20022;-30
2022/07/18 02:09:07;;;;;;;6.25;2.38;;;;;;;21.72;43.29;100581.34;5027063;28;20079;-27
2022/07/18 02:11:34;;;;;;;7.90;2.10;;;;;;;22.12;41.42;100576.75;5027432;28;20030;-30
2022/07/18 02:14:00;;;;;;;4.35;2.38;;;;;;;21.91;41.73;100595.09;5025649;28;20033;-27
2022/07/18 02:16:26;;;;;;;5.22;2.03;;;;;;;21.64;43.23;100590.91;5025679;28;20079;-29
2022/07/18 02:18:52;;;;;;;5.72;2.17;;;;;;;21.39;42.61;100598.06;5025844;28;20029;-30
2022/07/18 02:21:17;;;;;;;4.32;2.20;;;;;;;21.24;43.00;100603.53;5025523;28;20556;-29
2022/07/18 02:23:43;;;;;;;4.30;2.00;;;;;;;21.33;43.07;100601.91;5026765;28;20080;-29
2022/07/18 02:26:10;;;;;;;5.57;2.20;;;;;;;21.19;43.95;100585.41;5027225;28;20120;-27
2022/07/18 02:28:36;;;;;;;4.20;2.15;;;;;;;21.17;43.44;100598.41;5026883;28;20029;-28
2022/07/18 02:31:03;;;;;;;4.10;2.28;;;;;;;21.77;45.23;100605.78;5026979;28;20080;-28
2022/07/18 02:33:29;;;;;;;5.47;2.13;;;;;;;22.30;43.98;100614.13;5025392;28;20029;-30
2022/07/18 02:35:55;;;;;;;10.38;2.75;;;;;;;22.52;42.22;100615.59;5025232;28;20497;-27
2022/07/18 02:38:20;;;;;;;6.75;2.60;;;;;;;22.76;44.54;100605.56;5025668;28;20029;-28
2022/07/18 02:40:45;;;;;;;6.95;2.50;;;;;;;22.41;43.13;100599.38;5027124;28;20065;-27
2022/07/18 02:43:11;;;;;;;6.13;2.40;;;;;;;22.14;42.85;100628.88;5025498;28;20088;-29
2022/07/18 02:45:36;;;;;;;7.93;2.60;;;;;;;22.22;45.08;100628.28;5027143;28;20048;-28
2022/07/18 02:48:02;;;;;;;5.00;2.38;;;;;;;21.95;43.89;100605.13;5025101;28;20025;-29
2022/07/18 02:50:28;;;;;;;5.63;2.47;;;;;;;22.31;43.65;100626.59;5025223;28;20095;-29
2022/07/18 02:52:56;;;;;;;9.35;2.50;;;;;;;22.54;44.60;100630.50;5025172;28;20029;-28
2022/07/18 02:55:22;;;;;;;8.48;2.83;;;;;;;22.62;43.13;100624.47;5025411;28;20044;-27
2022/07/18 02:57:49;;;;;;;5.53;2.55;;;;;;;22.32;42.93;100635.59;5025104;28;20021;-27
2022/07/18 03:00:16;;;;;;;7.55;2.65;;;;;;;21.54;43.87;100640.63;5025136;28;20025;-30
2022/07/18 03:02:43;;;;;;;4.60;2.40;;;;;;;20.79;44.02;100622.34;5025165;28;20084;-27
2022/07/18 03:05:09;;;;;;;5.95;2.70;;;;;;;20.75;43.91;100628.59;5024769;28;20448;-32
2022/07/18 03:07:35;;;;;;;6.22;2.92;;;;;;;20.46;46.48;100629.94;5025204;28;20036;-27
2022/07/18 03:10:00;;;;;;;5.18;2.75;;;;;;;20.36;45.69;100648.91;5026574;28;20037;-27
2022/07/18 03:12:26;;;;;;;9.10;2.92;;;;;;;20.14;47.54;100645.63;5026520;28;20128;-28
2022/07/18 03:14:52;;;;;;;7.95;2.60;;;;;;;20.64;49.76;100635.94;5025988;28;20076;-30
2022/07/18 03:17:17;;;;;;;6.90;2.78;;;;;;;22.08;44.77;100628.91;5026331;28;20378;-27
2022/07/18 03:19:43;;;;;;;7.88;3.17;;;;;;;21.72;42.92;100646.50;5025924;28;20033;-31
2022/07/18 03:22:08;;;;;;;7.47;2.80;;;;;;;21.22;45.94;100641.78;5026137;28;20030;-28
2022/07/18 03:24:34;;;;;;;7.70;2.90;;;;;;;21.84;45.04;100644.28;5026384;28;20032;-29
2022/07/18 03:26:59;;;;;;;13.05;3.55;;;;;;;21.73;44.55;100626.44;5024892;28;20386;-28
2022/07/18 03:29:26;;;;;;;14.23;3.70;;;;;;;20.58;44.08;100620.75;5026126;28;20033;-29
2022/07/18 03:31:52;;;;;;;10.35;3.25;;;;;;;20.30;44.99;100632.94;5024681;28;20114;-27
2022/07/18 03:34:18;;;;;;;11.48;3.60;;;;;;;20.05;45.97;100648.06;5024672;28;20033;-27
2022/07/18 03:36:44;;;;;;;6.43;2.80;;;;;;;19.83;46.31;100649.06;5023743;28;20017;-27
2022/07/18 03:39:10;;;;;;;17.17;4.15;;;;;;;19.83;47.91;100640.16;5025995;28;20040;-29
2022/07/18 03:41:37;;;;;;;20.63;3.95;;;;;;;19.51;49.93;100638.38;5024905;28;20613;-28
2022/07/18 03:44:03;;;;;;;10.68;3.35;;;;;;;19.77;49.03;100646.63;5024287;28;20112;-27
2022/07/18 03:46:29;;;;;;;15.55;3.50;;;;;;;19.26;49.68;100658.00;5024648;28;20025;-27
2022/07/18 03:48:55;;;;;;;13.43;3.70;;;;;;;18.79;53.41;100654.19;5024382;28;20523;-33
2022/07/18 03:51:20;;;;;;;6.60;3.08;;;;;;;18.33;55.79;100653.78;5026167;28;20025;-29
2022/07/18 03:53:46;;;;;;;6.43;3.10;;;;;;;17.94;56.93;100653.94;5025812;28;20033;-28
2022/07/18 03:56:11;;;;;;;6.28;3.03;;;;;;;17.85;56.90;100655.47;5026068;28;20492;-29
2022/07/18 03:58:37;;;;;;;11.75;3.28;;;;;;;18.08;56.81;100662.44;5025910;28;20850;-28
2022/07/18 04:01:02;;;;;;;6.78;2.70;;;;;;;18.00;56.98;100657.50;5025723;28;20030;-27
2022/07/18 04:03:29;;;;;;;8.57;3.08;;;;;;;18.03;56.62;100636.22;5025618;28;20036;-27
2022/07/18 04:05:54;;;;;;;7.05;3.53;;;;;;;18.05;56.17;100652.97;5024753;28;20029;-28
2022/07/18 04:08:20;;;;;;;11.63;3.78;;;;;;;18.23;56.69;100651.81;5026081;28;20052;-29
2022/07/18 04:10:45;;;;;;;6.90;3.10;;;;;;;18.39;57.01;100652.78;5026298;28;20029;-29
2022/07/18 04:13:11;;;;;;;8.50;3.10;;;;;;;18.60;56.66;100666.44;5025858;28;20469;-31
2022/07/18 04:15:37;;;;;;;11.45;3.78;;;;;;;18.72;55.85;100686.00;5024197;28;20046;-29
2022/07/18 04:18:04;;;;;;;8.02;3.03;;;;;;;18.93;55.67;100686.19;5023843;28;20120;-29
2022/07/18 04:20:29;;;;;;;12.57;3.08;;;;;;;19.33;53.98;100680.22;5024428;28;20087;-27
2022/07/18 04:22:57;;;;;;;5.70;2.40;;;;;;;19.70;48.78;100673.09;5025842;28;20758;-27
2022/07/18 04:25:25;;;;;;;7.05;2.80;;;;;;;19.90;47.07;100677.78;5024462;28;20061;-30
2022/07/18 04:27:51;;;;;;;20.08;4.13;;;;;;;19.83;47.04;100678.03;5024082;28;20040;-29
2022/07/18 04:30:21;;;;;;;20.55;3.53;;;;;;;19.86;47.98;100682.94;5024381;28;20041;-29
2022/07/18 04:32:47;;;;;;;6.03;2.28;;;;;;;19.76;48.28;100678.28;5024188;28;20032;-32
2022/07/18 04:35:13;;;;;;;7.85;2.30;;;;;;;20.02;48.60;100681.06;5026007;28;20068;-35
2022/07/18 04:37:39;;;;;;;6.90;2.50;;;;;;;20.03;48.03;100669.97;5025533;28;20108;-27
2022/07/18 04:40:06;;;;;;;5.53;2.22;;;;;;;20.20;47.51;100698.72;5025145;28;20056;-27
2022/07/18 04:42:32;;;;;;;4.18;1.98;;;;;;;20.27;46.89;100702.00;5027857;28;20095;-27
2022/07/18 04:44:57;;;;;;;5.28;2.03;;;;;;;20.28;47.16;100699.00;5028985;28;20045;-27
2022/07/18 04:47:23;;;;;;;5.03;1.90;;;;;;;20.39;46.14;100691.72;5027499;28;20413;-31
2022/07/18 04:49:49;;;;;;;5.72;1.83;;;;;;;20.45;44.69;100681.69;5027522;28;20034;-31
2022/07/18 04:52:14;;;;;;;5.85;2.00;;;;;;;20.80;44.01;100704.47;5029300;28;20017;-27
2022/07/18 04:54:40;;;;;;;4.13;1.80;;;;;;;21.03;43.85;100708.56;5029183;28;20128;-29
2022/07/18 04:57:05;;;;;;;5.78;2.20;;;;;;;21.00;42.74;100706.38;5029049;28;20057;-28
2022/07/18 04:59:31;;;;;;;7.35;2.15;;;;;;;20.99;43.07;100691.22;5027473;28;20147;-28
2022/07/18 05:01:56;;;;;;;6.50;2.22;;;;;;;21.36;41.21;100714.47;5028616;28;20493;-29
2022/07/18 05:04:22;;;;;;;5.40;2.45;;;;;;;21.25;41.64;100719.91;5029075;28;20447;-32
2022/07/18 05:06:48;;;;;;;8.27;2.97;;;;;;;21.37;40.62;100713.34;5027190;28;20060;-27
2022/07/18 05:09:13;;;;;;;8.63;3.80;;;;;;;21.45;40.46;100719.09;5027127;28;20065;-29
2022/07/18 05:11:39;;;;;;;8.48;3.17;;;;;;;21.43;41.19;100699.56;5028276;28;20508;-27
2022/07/18 05:14:05;;;;;;;4.45;2.20;;;;;;;21.52;39.46;100707.94;5026588;28;20075;-30
2022/07/18 05:16:30;;;;;;;6.60;2.40;;;;;;;21.64;40.12;100716.59;5026474;28;20447;-29
2022/07/18 05:18:56;;;;;;;7.93;2.33;;;;;;;21.88;39.13;100721.34;5027144;28;20041;-27
2022/07/18 05:21:21;;;;;;;9.88;2.30;;;;;;;21.98;39.42;100710.44;5028332;28;20859;-27
2022/07/18 05:23:46;;;;;;;11.27;2.20;;;;;;;22.18;40.15;100714.97;5028009;28;20088;-29
2022/07/18 05:26:13;;;;;;;7.18;1.90;;;;;;;22.12;37.20;100709.84;5028126;28;20072;-29
2022/07/18 05:28:38;;;;;;;4.32;1.80;;;;;;;22.01;38.59;100703.66;5026419;28;20017;-28
2022/07/18 05:31:03;;;;;;;3.92;1.73;;;;;;;22.33;38.02;100721.41;5027861;28;20036;-30
2022/07/18 05:33:29;;;;;;;6.15;1.70;;;;;;;21.94;37.98;100703.94;5026474;28;20026;-28
2022/07/18 05:35:54;;;;;;;4.90;1.88;;;;;;;22.08;39.33;100715.81;5027620;28;20030;-28
2022/07/18 05:38:20;;;;;;;4.85;1.92;;;;;;;21.89;37.85;100693.13;5027793;28;20017;-30
2022/07/18 05:40:45;;;;;;;4.93;1.80;;;;;;;22.04;40.32;100713.94;5027760;28;20705;-28
2022/07/18 05:43:11;;;;;;;7.03;2.20;;;;;;;22.28;38.20;100711.41;5027814;28;20033;-30
2022/07/18 05:45:37;;;;;;;15.82;2.53;;;;;;;22.32;38.59;100717.09;5027504;28;20029;-29
2022/07/18 05:48:02;;;;;;;6.95;2.00;;;;;;;22.70;38.49;100725.50;5027701;28;20041;-27
2022/07/18 05:50:28;;;;;;;3.58;1.88;;;;;;;22.97;39.07;100698.63;5027465;28;20133;-31
2022/07/18 05:52:53;;;;;;;3.97;1.70;;;;;;;23.11;37.33;100717.84;5027487;28;20025;-27
2022/07/18 05:55:19;;;;;;;6.25;1.98;;;;;;;22.97;36.31;100714.97;5027572;28;20023;-33
2022/07/18 05:57:45;;;;;;;6.07;2.20;;;;;;;23.02;37.04;100705.97;5025940;28;20025;-30
2022/07/18 06:00:11;;;;;;;4.13;1.73;;;;;;;23.11;36.36;100731.47;5025771;28;20037;-27
2022/07/18 06:02:37;;;;;;;3.72;1.80;;;;;;;23.08;36.41;100721.13;5027619;28;20095;-30
2022/07/18 06:05:03;;;;;;;4.82;1.67;;;;;;;23.40;37.26;100730.63;5026112;28;20583;-27
2022/07/18 06:07:29;;;;;;;4.30;1.80;;;;;;;23.41;36.67;100718.63;5026150;28;20030;-28
2022/07/18 06:09:55;;;;;;;3.92;1.98;;;;;;;23.39;36.23;100720.81;5027178;28;20035;-27
2022/07/18 06:12:21;;;;;;;4.75;1.60;;;;;;;23.41;36.43;100724.06;5027090;28;20033;-30
2022/07/18 06:14:46;;;;;;;5.50;2.00;;;;;;;23.50;36.81;100702.47;5025510;28;20041;-31
2022/07/18 06:17:12;;;;;;;5.30;1.80;;;;;;;23.70;35.69;100720.47;5027350;28;20041;-28
2022/07/18 06:19:39;;;;;;;4.78;1.92;;;;;;;23.79;36.59;100716.84;5025912;28;20033;-28
2022/07/18 06:22:05;;;;;;;4.68;2.08;;;;;;;23.85;35.55;100726.56;5025533;28;20036;-27
2022/07/18 06:24:30;;;;;;;4.43;1.63;;;;;;;23.75;34.15;100713.06;5026002;28;20083;-27
2022/07/18 06:26:56;;;;;;;3.80;2.00;;;;;;;23.71;35.75;100711.22;5027007;28;20037;-33
2022/07/18 06:29:21;;;;;;;5.82;1.70;;;;;;;24.00;35.14;100725.56;5027079;28;20025;-29
2022/07/18 06:31:47;;;;;;;3.65;1.45;;;;;;;24.14;33.82;100727.56;5027237;28;20695;-30
2022/07/18 06:34:12;;;;;;;3.45;1.83;;;;;;;24.17;35.94;100729.69;5026978;28;20083;-28
2022/07/18 06:36:38;;;;;;;7.10;2.20;;;;;;;24.45;34.03;100731.47;5027226;28;20489;-33
2022/07/18 06:39:09;;;;;;;5.18;1.65;;;;;;;24.63;32.74;100737.25;5027124;28;20699;-27
2022/07/18 06:41:35;;;;;;;7.97;1.83;;;;;;;24.70;34.17;100732.19;5026890;28;20569;-30
2022/07/18 06:44:00;;;;;;;6.18;2.13;;;;;;;24.89;33.11;100712.25;5024627;28;20018;-29
2022/07/18 06:46:26;;;;;;;3.78;1.63;;;;;;;25.09;33.35;100716.56;5026572;28;20033;-31
2022/07/18 06:48:51;;;;;;;4.32;1.75;;;;;;;24.99;32.94;100726.56;5026506;28;20032;-29
2022/07/18 06:51:16;;;;;;;4.50;1.73;;;;;;;24.96;34.95;100707.22;5025191;28;20057;-34
2022/07/18 06:53:42;;;;;;;13.02;4.07;;;;;;;25.23;31.46;100728.31;5026301;28;20481;-31
2022/07/18 06:56:08;;;;;;;64.68;34.72;;;;;;;25.58;32.74;100721.41;5026178;28;20033;-27
2022/07/18 06:58:33;;;;;;;5.15;1.70;;;;;;;25.81;32.00;100721.47;5026195;28;20026;-28
2022/07/18 07:00:59;;;;;;;5.68;2.03;;;;;;;25.83;31.60;100713.78;5024671;28;20033;-35
2022/07/18 07:03:24;;;;;;;4.82;1.80;;;;;;;26.15;31.44;100721.00;5024168;28;20036;-33
2022/07/18 07:05:50;;;;;;;21.27;9.98;;;;;;;26.29;32.42;100733.84;5024369;28;20044;-28
2022/07/18 07:08:15;;;;;;;10.02;5.93;;;;;;;26.34;30.25;100744.69;5026233;28;20030;-29
2022/07/18 07:10:41;;;;;;;4.55;1.80;;;;;;;26.45;29.36;100722.25;5026058;28;20032;-30
2022/07/18 07:13:06;;;;;;;4.05;1.98;;;;;;;26.55;30.63;100737.59;5025570;28;20287;-31
2022/07/18 07:15:32;;;;;;;5.80;1.83;;;;;;;26.39;29.34;100745.34;5025424;28;20476;-28
2022/07/18 07:17:57;;;;;;;3.30;2.00;;;;;;;26.46;29.81;100732.06;5025344;28;20091;-28
2022/07/18 07:20:23;;;;;;;4.75;1.60;;;;;;;26.85;29.17;100738.03;5024938;28;20828;-30
2022/07/18 07:22:53;;;;;;;5.18;1.70;;;;;;;26.54;29.42;100722.34;5024260;28;20025;-29
2022/07/18 07:25:21;;;;;;;2.90;1.63;;;;;;;26.67;28.95;100736.28;5024412;28;20521;-30
2022/07/18 07:27:47;;;;;;;5.45;1.98;;;;;;;26.72;29.26;100727.94;5023910;28;20112;-33
2022/07/18 07:30:14;;;;;;;3.92;2.00;;;;;;;27.02;30.56;100715.41;5025938;28;20374;-29
2022/07/18 07:32:42;;;;;;;4.03;1.77;;;;;;;27.08;29.64;100724.31;5024433;28;20053;-28
2022/07/18 07:35:11;;;;;;;3.33;1.75;;;;;;;27.16;30.08;100721.59;5025752;28;20464;-28
2022/07/18 07:37:41;;;;;;;3.70;1.80;;;;;;;27.34;29.38;100725.25;5024141;28;20456;-31
2022/07/18 07:40:08;;;;;;;4.72;2.05;;;;;;;26.71;29.83;100738.09;5023927;28;20129;-32
2022/07/18 07:42:33;;;;;;;4.78;2.08;;;;;;;27.05;29.90;100729.28;5024287;28;20037;-28
2022/07/18 07:44:59;;;;;;;5.82;2.00;;;;;;;27.27;30.53;100726.84;5025301;28;20040;-32
2022/07/18 07:47:24;;;;;;;5.13;2.10;;;;;;;26.99;30.80;100702.34;5025782;28;20796;-29
2022/07/18 07:49:51;;;;;;;5.35;2.45;;;;;;;27.35;29.43;100728.81;5025142;28;20037;-28
2022/07/18 07:52:17;;;;;;;4.50;2.40;;;;;;;27.38;30.18;100729.00;5023774;28;20651;-30
2022/07/18 07:54:46;;;;;;;4.43;2.53;;;;;;;27.33;31.10;100731.06;5023762;28;20053;-29
2022/07/18 07:57:12;;;;;;;5.15;1.70;;;;;;;27.47;29.40;100720.00;5024194;28;20065;-30
2022/07/18 07:59:38;;;;;;;9.13;5.50;;;;;;;27.37;29.26;100726.56;5025551;28;20061;-28
2022/07/18 08:02:03;;;;;;;8.07;5.65;;;;;;;27.45;29.79;100728.53;5025333;28;20669;-29
2022/07/18 08:04:30;;;;;;;8.13;3.03;;;;;;;27.75;28.40;100715.09;5025472;28;20869;-28
2022/07/18 08:06:56;;;;;;;7.75;5.07;;;;;;;27.45;29.74;100718.38;5023891;28;20030;-29
2022/07/18 08:09:21;;;;;;;7.55;6.53;;;;;;;27.69;29.87;100719.09;5023828;28;20061;-28
2022/07/18 08:11:47;;;;;;;5.43;3.20;;;;;;;28.04;29.31;100729.03;5025211;28;20029;-32
2022/07/18 08:14:13;;;;;;;3.22;2.10;;;;;;;27.86;29.26;100705.41;5025390;28;20551;-28
2022/07/18 08:16:38;;;;;;;5.70;2.50;;;;;;;28.11;29.21;100723.06;5028637;28;20033;-29
2022/07/18 08:19:04;;;;;;;3.70;1.98;;;;;;;28.37;27.97;100703.88;5029117;28;20064;-35
2022/07/18 08:21:29;;;;;;;5.68;2.30;;;;;;;28.32;29.22;100711.44;5029071;28;20037;-28
2022/07/18 08:23:55;;;;;;;11.15;7.85;;;;;;;28.20;30.11;100698.41;5028558;28;20029;-29
2022/07/18 08:26:20;;;;;;;4.47;2.90;;;;;;;28.31;31.20;100707.09;5027458;28;20103;-31
2022/07/18 08:28:46;;;;;;;7.35;3.58;;;;;;;28.56;29.73;100705.50;5028920;28;20033;-28
2022/07/18 08:31:11;;;;;;;4.00;2.40;;;;;;;28.70;30.96;100710.81;5028934;28;20033;-29
2022/07/18 08:33:37;;;;;;;5.03;2.58;;;;;;;28.78;30.94;100702.53;5028930;28;20408;-35
2022/07/18 08:36:02;;;;;;;7.18;4.05;;;;;;;29.03;30.04;100694.56;5028765;28;20045;-28
2022/07/18 08:38:28;;;;;;;5.43;2.40;;;;;;;28.85;30.19;100689.16;5028917;28;20148;-29
2022/07/18 08:40:54;;;;;;;6.78;3.00;;;;;;;28.69;30.79;100688.06;5029501;28;20404;-28
2022/07/18 08:43:20;;;;;;;6.38;2.47;;;;;;;29.10;30.90;100700.38;5029050;28;20035;-31
2022/07/18 08:45:46;;;;;;;7.28;3.20;;;;;;;28.88;32.28;100690.41;5026936;28;20037;-29
2022/07/18 08:48:17;;;;;;;8.98;3.22;;;;;;;29.37;33.13;100706.59;5027577;28;20030;-33
2022/07/18 08:50:47;;;;;;;7.93;3.35;;;;;;;29.17;31.13;100692.44;5027152;28;20041;-31
2022/07/18 08:53:14;;;;;;;7.72;3.45;;;;;;;29.61;32.72;100701.28;5026789;28;20034;-33
2022/07/18 08:55:40;;;;;;;4.65;3.00;;;;;;;29.48;30.25;100696.03;5027173;28;20037;-33
2022/07/18 08:58:05;;;;;;;6.18;3.03;;;;;;;29.50;31.74;100700.03;5028318;28;20037;-27
2022/07/18 09:00:33;;;;;;;7.10;3.65;;;;;;;29.45;33.04;100681.00;5028415;28;20707;-36
2022/07/18 09:03:00;;;;;;;25.60;16.70;;;;;;;29.52;31.61;100686.78;5027042;28;20585;-28
2022/07/18 09:05:27;;;;;;;5.53;3.08;;;;;;;29.48;32.31;100685.81;5026494;28;20091;-28
2022/07/18 09:08:07;;;;;;;9.30;3.30;;;;;;;29.75;32.44;100683.75;5026702;28;20705;-30
2022/07/18 09:10:55;;;;;;;5.40;3.08;;;;;;;29.98;32.57;100690.56;5026744;28;20052;-32
2022/07/18 09:13:29;;;;;;;9.07;3.63;;;;;;;30.31;31.57;100684.34;5027994;28;20029;-31
2022/07/18 09:16:06;;;;;;;6.90;3.35;;;;;;;30.38;31.95;100679.09;5025829;28;20053;-28
2022/07/18 09:18:37;;;;;;;;;;;;;;;30.65;31.71;100687.91;5028565;28;20505;-30
2022/07/18 09:21:04;;;;;;;4.13;2.60;;;;;;;30.46;32.90;100685.66;5026490;28;19921;-28
2022/07/18 09:23:32;;;;;;;5.07;3.50;;;;;;;29.75;33.56;100683.75;5027858;28;20564;-28
2022/07/18 09:25:59;;;;;;;5.70;3.28;;;;;;;30.04;33.74;100683.72;5009491;28;20041;-28
2022/07/18 09:28:26;;;;;;;6.45;3.88;;;;;;;30.44;33.88;100677.75;5028203;28;20029;-29
2022/07/18 09:30:51;;;;;;;6.22;4.45;;;;;;;30.81;33.24;100686.13;5026467;28;20079;-31
2022/07/18 09:33:20;;;;;;;8.52;4.43;;;;;;;30.55;33.24;100680.88;5027983;28;20052;-30
2022/07/18 09:35:54;;;;;;;9.25;4.70;;;;;;;30.68;33.72;100686.41;5027626;28;20489;-30
2022/07/18 09:38:29;;;;;;;6.95;3.95;;;;;;;30.81;33.52;100686.13;5026464;28;20025;-28
2022/07/18 09:40:57;;;;;;;6.32;4.10;;;;;;;31.08;34.20;100681.13;5026212;28;20033;-33
2022/07/18 09:43:24;;;;;;;7.32;3.88;;;;;;;31.43;34.60;100666.91;5026332;28;20501;-29
2022/07/18 09:45:52;;;;;;;6.80;4.28;;;;;;;31.24;34.32;100676.53;5025584;28;20034;-28
2022/07/18 09:48:28;;;;;;;5.78;4.13;;;;;;;31.58;33.62;100679.19;5027292;28;20481;-29
2022/07/18 09:51:00;;;;;;;8.20;4.40;;;;;;;31.10;33.75;100684.34;5027459;28;20094;-34
2022/07/18 09:53:47;;;;;;;7.35;4.22;;;;;;;31.02;33.06;100682.50;5027066;28;20032;-29
2022/07/18 09:56:22;;;;;;;5.70;4.15;;;;;;;31.38;34.08;100661.59;5025703;28;20034;-34
2022/07/18 09:58:54;;;;;;;7.88;4.13;;;;;;;31.23;33.04;100668.63;5025860;28;20037;-29
2022/07/18 10:01:19;;;;;;;6.43;4.30;;;;;;;30.98;32.80;100641.06;5025588;28;20033;-28
2022/07/18 10:03:45;;;;;;;6.00;3.92;;;;;;;30.62;33.50;100642.56;5027191;28;20409;-33
2022/07/18 10:06:11;;;;;;;7.32;4.10;;;;;;;30.73;34.70;100651.22;5027020;28;20033;-29
2022/07/18 10:08:37;;;;;;;6.90;4.15;;;;;;;31.08;33.33;100645.31;5027222;28;20086;-35
2022/07/18 10:11:05;;;;;;;6.95;4.38;;;;;;;31.31;32.48;100636.59;5026946;28;20033;-33
2022/07/18 10:13:31;;;;;;;;;;;;;;;32.05;31.53;100645.56;5027388;28;20397;-30
2022/07/18 10:15:57;;;;;;;6.78;4.05;;;;;;;31.88;31.75;100654.91;5026815;28;19920;-36
2022/07/18 10:18:25;;;;;;;6.38;4.22;;;;;;;31.89;30.74;100628.91;5025154;28;20497;-37
2022/07/18 10:21:10;;;;;;;6.68;4.60;;;;;;;31.41;32.79;100633.38;5025727;28;20033;-28
2022/07/18 10:23:46;;;;;;;6.53;4.28;;;;;;;31.06;32.85;100625.56;5026940;28;20061;-29
2022/07/18 10:26:18;;;;;;;7.82;4.30;;;;;;;31.32;33.75;100630.72;5026694;28;20037;-29
2022/07/18 10:28:55;;;;;;;5.40;3.80;;;;;;;31.85;32.08;100628.00;5025252;28;20037;-33
2022/07/18 10:31:32;;;;;;;8.95;6.05;;;;;;;31.83;31.43;100614.59;5026736;28;20064;-32
2022/07/18 10:34:06;;;;;;;7.35;4.20;;;;;;;31.42;32.10;100621.97;5025235;28;20028;-28
2022/07/18 10:36:51;;;;;;;5.30;4.10;;;;;;;31.23;33.02;100611.56;5026599;28;20037;-32
2022/07/18 10:39:23;;;;;;;5.20;3.90;;;;;;;31.86;31.89;100607.56;5024461;28;20025;-31
2022/07/18 10:41:52;;;;;;;4.85;3.40;;;;;;;32.42;31.29;100607.53;5026499;28;20030;-32
2022/07/18 10:44:20;;;;;;;4.95;3.50;;;;;;;32.31;29.99;100624.97;5025348;28;20042;-28
2022/07/18 10:47:01;;;;;;;5.68;3.70;;;;;;;32.60;30.23;100621.84;5026671;28;20549;-28
2022/07/18 10:49:45;;;;;;;7.00;4.13;;;;;;;33.16;28.61;100618.13;5026429;28;20033;-30
2022/07/18 10:52:28;;;;;;;7.45;4.03;;;;;;;33.43;27.89;100621.09;5026592;28;20108;-30
2022/07/18 10:55:03;;;;;;;6.25;4.22;;;;;;;33.90;27.52;100628.44;5026377;28;20029;-32
2022/07/18 10:57:40;;;;;;;6.20;3.50;;;;;;;33.85;28.41;100619.63;5026368;28;20037;-28
2022/07/18 11:00:11;;;;;;;5.65;3.75;;;;;;;33.66;28.79;100617.66;5024382;28;20060;-33
2022/07/18 11:02:39;;;;;;;7.70;3.22;;;;;;;33.01;29.25;100616.94;5025070;28;20040;-28
2022/07/18 11:05:23;;;;;;;5.82;3.78;;;;;;;32.87;28.85;100601.97;5026356;28;20068;-31
2022/07/18 11:07:57;;;;;;;6.57;3.60;;;;;;;32.98;30.06;100608.59;5026016;28;20536;-28
2022/07/18 11:10:41;;;;;;;7.00;3.65;;;;;;;32.95;28.57;100604.56;5026111;28;20145;-28
2022/07/18 11:13:28;;;;;;;7.43;3.80;;;;;;;32.39;30.20;100580.66;5025398;28;20780;-30
2022/07/18 11:16:24;;;;;;;6.53;3.83;;;;;;;32.40;30.02;100595.25;5025380;28;20452;-28
2022/07/18 11:18:50;;;;;;;7.00;3.90;;;;;;;32.42;29.40;100596.50;5024180;28;20029;-33
2022/07/18 11:21:20;;;;;;;5.95;3.60;;;;;;;32.59;29.17;100583.53;5024239;28;20035;-32
2022/07/18 11:23:48;;;;;;;10.00;4.13;;;;;;;33.03;28.60;100586.97;5025552;28;20116;-30
2022/07/18 11:26:18;;;;;;;6.47;3.88;;;;;;;33.87;27.03;100584.09;5024400;28;20037;-30
2022/07/18 11:28:46;;;;;;;4.85;3.60;;;;;;;33.57;27.37;100576.34;5024237;28;20033;-29